Poy Sippi, Wisconsin
Current Conditions -  °F | °C
As of 2:35 AM on Friday 28 Nov 2014 (Local Time) from KPCZ Reporting Station
Overcast Overcast  
Wind Chill:   Ceiling: 8000
Heat Index:   Visibility: 10mi
Dew Point:   Wind: 3mph
Humidity: 82%   Direction: 200°SSW
Pressure: 30.33"   Gusts: NA
Location:  44.14°N, 89°W
Report Text: KPCZ 280835Z AUTO 20003KT 10SM OVC080 M14/M16 A3033 RMK AO2 T11371161
Loading
Personal Weather Stations






























Interactive Weather Map New forecast layout! Learn more

10-Day Weather Forecast

Advertisements
Track Severe Weather on mobile